Terminal Aerodrome Forecast
Issued by NWS

Home | Current Version | Previous Version | Text Only | Print | Product List | Glossary On
Versions: 1 2 3 4 5 6 7 8 9 10 11 12 13 14 15 16
681
FTUS45 KRIW 201600 AAA
TAFBPI
TAF AMD
KBPI 201618Z 2016/2112 19006KT P6SM BKN010
     FM201700 15009KT P6SM VCSH SCT012 BKN030
     FM210000 20008KT P6SM VCSH BKN050=

USA.gov is the U.S. government's official web portal to all federal, state and local government web resources and services.